Weather observations for the past three days for
Red Wing - Red Wing Regional Airport
Metric (Imperial)
Date Time (cdt) Wind (kph) Vis. (km) Weather Sky Cond. Temperature (ºC) Relative Humidity Wind Chill (°C) Heat Index (°C) Pressure Precipitation (cm)
Air Dwpt 6 hour altimeter (cm) sea level (mb) 1 hr 3 hr 6 hr
Max. Min.
15 06:17 Calm 0.24 Fog OVC002 22 21 94% 75.72 0.0
15 05:55 Calm 0.24 Drizzle OVC002 22 21 94% 75.67 0.0
15 05:35 Calm 0.24 Drizzle OVC002 22 21 94% 75.67 0.0
15 04:55 Calm 0.24 Drizzle OVC002 22 21 94% 75.69 0.0
15 04:35 Calm 0.24 Overcast OVC002 22 21 94% 75.69 0.0
15 04:15 Calm 0.24 Fog OVC002 21 21 100% 75.72 0.0
15 03:55 Calm 0.24 Fog OVC002 21 20 94% 75.74 0.0
15 03:35 Calm 0.24 Fog OVC002 21 20 94% 75.74 0.0
15 03:15 Calm 0.24 Heavy Drizzle OVC002 21 20 94% 75.77 0.0
15 02:55 Calm 0.24 Fog OVC002 21 20 94% 75.79 0.0
15 02:35 Calm 0.24 Fog OVC002 21 20 94% 75.79 0.0
15 02:15 Calm 0.40 Fog OVC002 21 19 88% 75.77 0.0
15 01:55 Calm 4.83 Fog/Mist BKN002 21 19 88% 75.79 0.0
15 01:35 Calm 8.05 Fog/Mist SCT002 21 20 94% 75.82 0.0
15 01:15 Calm 8.05 Fog/Mist CLR 21 20 94% 75.82 0.0
15 00:55 Calm 8.05 Fog/Mist CLR 21 20 94% 75.82 0.0
15 00:35 Calm 4.83 Fog/Mist CLR 21 20 94% 75.82 0.0
15 00:15 Calm 11.27 Fair CLR 22 21 94% 75.82 0.0
14 23:55 Calm 11.27 Fair CLR 22 21 94% 75.82 0.0
14 23:35 Calm 16.09 Fair CLR 22 21 94% 75.82 0.0
14 23:15 Calm 16.09 Fair CLR 23 22 94% 75.79 0.0
14 22:55 Calm 16.09 Fair CLR 23 21 89% 75.79 0.0
14 22:35 Calm 11.27 Fair CLR 23 22 94% 75.79 0.0
14 22:15 Calm 16.09 Fair CLR 24 22 89% 24 75.79 0.0
14 21:55 Calm 16.09 Fair CLR 24 22 89% 24 75.77 0.0
14 21:35 Calm 16.09 Fair CLR 25 22 83% 26 75.77 0.0
14 21:15 N 6 16.09 Fair CLR 25 23 89% 26 75.77 0.0
14 20:55 Calm 16.09 Fair CLR 26 23 84% 28 75.77 0.0
14 20:35 Calm 16.09 Fair CLR 27 23 79% 30 75.77 0.0
14 20:15 Calm 16.09 Fair CLR 28 23 74% 31 75.77 0.0
14 19:55 Calm 16.09 Fair CLR 29 23 70% 33 75.79 0.0
14 19:35 Calm 16.09 Fair CLR 30 22 62% 33 75.79 0.0
14 19:15 Calm 16.09 Fair CLR 31 22 59% 35 75.79 0.0
14 18:55 Calm 16.09 Fair CLR 31 21 55% 34 75.79 0.0
14 18:35 W 6 16.09 Partly Cloudy SCT037 31 21 55% 34 75.82 0.0
14 18:15 N 7 16.09 Partly Cloudy SCT037 31 21 55% 34 75.79 0.0
14 17:55 Calm 16.09 Partly Cloudy SCT037 31 21 55% 34 75.82 0.0
14 17:35 W 11 16.09 Partly Cloudy SCT035 31 21 55% 34 75.82 0.0
14 17:15 N 6 16.09 Partly Cloudy SCT035 31 21 55% 34 75.82 0.0
14 16:55 W 7 16.09 Partly Cloudy SCT035 31 21 55% 34 75.82 0.0
14 16:35 W 7 16.09 Partly Cloudy SCT035 31 21 55% 34 75.82 0.0
14 16:15 SW 9 16.09 Partly Cloudy SCT034 31 21 55% 34 75.82 0.0
14 15:55 SW 9 16.09 Mostly Cloudy SCT029 BKN036 31 22 59% 35 75.82 0.0
14 15:35 W 6 16.09 Mostly Cloudy BKN028 31 22 59% 35 75.82 0.0
14 15:15 Calm 16.09 Partly Cloudy SCT028 31 22 59% 35 75.82 0.0
14 14:35 Calm 16.09 Partly Cloudy SCT026 29 22 66% 32 75.82 0.0
14 14:15 NW 9 16.09 Partly Cloudy SCT028 29 22 66% 32 75.79 0.0
14 13:55 W 6 16.09 Partly Cloudy SCT026 SCT100 29 22 66% 32 75.79 0.0
14 13:35 Calm 16.09 Partly Cloudy SCT028 29 21 62% 31 75.82 0.0
14 13:15 W 9 16.09 Partly Cloudy SCT028 29 21 62% 31 75.84 0.0
14 12:55 NW 7 16.09 Partly Cloudy SCT028 29 21 62% 31 75.84 0.0
14 12:35 SW 6 16.09 Partly Cloudy SCT028 29 21 62% 31 75.87 0.0
14 12:15 SW 11 16.09 Partly Cloudy SCT028 SCT110 29 21 62% 31 75.87 0.0
14 11:55 SW 7 16.09 Partly Cloudy SCT028 28 21 66% 30 75.9 0.0
14 11:35 S 7 16.09 Partly Cloudy SCT042 28 21 66% 30 75.9 0.0
14 11:15 SW 6 16.09 Partly Cloudy SCT032 SCT040 27 21 70% 29 75.92 0.0
14 10:55 S 11 16.09 Partly Cloudy SCT032 27 20 66% 29 75.92 0.0
14 10:35 SW 9 16.09 Partly Cloudy SCT034 27 20 66% 29 75.95 0.0
14 10:15 SW 6 16.09 Partly Cloudy SCT032 26 20 70% 27 75.92 0.0
14 09:55 SW 9 16.09 Partly Cloudy SCT027 SCT033 26 20 70% 27 75.92 0.0
14 09:35 W 9 16.09 Partly Cloudy SCT027 26 20 70% 27 75.95 0.0
14 09:15 Calm 16.09 Mostly Cloudy BKN027 24 19 74% 25 75.95 0.0
14 08:55 W 11 16.09 Mostly Cloudy BKN027 24 19 74% 25 75.95 0.0
14 08:35 SW 6 16.09 Fair CLR 24 19 74% 25 75.92 0.0
14 08:15 S 6 16.09 Fair CLR 23 18 74% 75.9 0.0
14 07:55 Calm 16.09 Fair CLR 23 18 74% 75.87 0.0
14 07:35 Calm 16.09 Fair CLR 23 18 74% 75.87 0.0
14 07:15 Calm 16.09 Fair CLR 22 18 78% 75.87 0.0
14 06:55 Calm 16.09 Fair CLR 22 18 78% 75.87 0.0
14 06:35 SE 11 16.09 Fair CLR 21 18 83% 75.87 0.0
14 06:15 SE 7 16.09 Fair CLR 21 18 83% 75.87 0.0
14 05:55 SE 9 16.09 Fair CLR 21 18 83% 75.9 0.0
14 05:35 SE 11 16.09 Fair CLR 21 18 83% 75.92 0.0
14 05:15 SE 11 16.09 Fair CLR 21 18 83% 75.92 0.0
14 04:55 SE 7 16.09 Fair CLR 21 18 83% 75.92 0.0
14 04:35 SE 20 16.09 Fair CLR 21 18 83% 75.92 0.0
14 04:15 SE 17 16.09 Fair CLR 21 19 88% 75.92 0.0
14 03:55 SE 19 16.09 Fair CLR 21 19 88% 75.9 0.0
14 03:35 S 6 G 28 16.09 Fair CLR 21 18 83% 75.87 0.0
14 03:15 SE 13 16.09 Thunderstorm in Vicinity CLR 21 19 88% 75.84 0.0
14 02:55 SE 13 16.09 Thunderstorm in Vicinity CLR 21 18 83% 75.87 0.0
14 02:35 E 15 G 28 16.09 Thunderstorm Light Rain SCT016 SCT024 SCT041 20 18 88% 75.87 0.0
14 02:15 E 24 4.02 Thunderstorm Heavy Rain SCT016 BKN024 OVC042 22 19 83% 76.1 0.0 0.03
14 01:55 NE 9 16.09 Thunderstorm OVC022 23 19 78% 75.95 0.0
14 01:35 NE 19 G 33 16.09 Thunderstorm in Vicinity SCT022 BKN029 OVC040 22 19 83% 75.97 0.0
14 01:15 E 6 16.09 Thunderstorm in Vicinity SCT029 BKN038 BKN046 22 19 83% 75.9 0.0
14 00:55 NE 7 16.09 Thunderstorm BKN036 BKN046 BKN060 22 20 88% 75.87 0.0
14 00:35 E 9 16.09 Thunderstorm in Vicinity BKN036 22 20 88% 75.87 0.0
14 00:15 SE 9 16.09 Thunderstorm in Vicinity SCT040 22 20 88% 75.9 0.0
13 23:55 E 6 16.09 Partly Cloudy SCT038 SCT045 SCT050 21 20 94% 75.95 0.0
13 23:35 E 7 16.09 Fair CLR 21 20 94% 75.97 0.0
13 22:55 Calm 11.27 Fair CLR 21 20 94% 75.97 0.0
13 22:35 Calm 16.09 Fair CLR 21 20 94% 76 0.0
13 22:15 Calm 16.09 Fair CLR 22 20 88% 75.95 0.0
13 21:55 Calm 16.09 Fair CLR 22 20 88% 75.97 0.0
13 21:35 SE 6 16.09 Partly Cloudy SCT040 23 20 83% 75.97 0.0
13 21:15 SE 9 16.09 Fair CLR 23 21 89% 75.97 0.0
13 20:55 Calm 16.09 Fair CLR 23 21 89% 75.95 0.0
13 20:35 Calm 16.09 Fair CLR 23 21 89% 75.92 0.0
13 20:15 Calm 16.09 Fair CLR 23 21 89% 75.95 0.0
13 19:55 Calm 16.09 Fair CLR 23 21 89% 75.92 0.0
13 19:35 Calm 16.09 Fair CLR 22 21 94% 75.95 0.0
13 19:15 SE 6 16.09 Fair CLR 23 21 89% 75.97 0.0
13 18:55 SE 6 16.09 Fair CLR 22 21 94% 75.97 0.0
13 18:35 E 7 16.09 Fair CLR 22 21 94% 75.97 0.0
13 18:15 E 7 16.09 Thunderstorm in Vicinity CLR 22 21 94% 76 0.0
13 17:55 Calm 16.09 Thunderstorm in Vicinity SCT017 23 21 89% 76.07 0.0
13 17:35 S 15 16.09 Thunderstorm Light Rain SCT017 SCT034 SCT095 23 21 89% 76.02 0.0
13 17:15 W 19 16.09 Thunderstorm Light Rain in Vicinity SCT013 SCT038 SCT090 23 21 89% 76.1 0.0
13 16:55 E 9 16.09 Thunderstorm Light Rain in Vicinity SCT070 BKN090 23 21 89% 76 0.0
13 16:35 NE 11 16.09 Partly Cloudy SCT100 23 21 89% 76.05 0.0
13 16:15 E 6 16.09 Partly Cloudy SCT100 23 21 89% 76.07 0.0
13 15:55 Calm 16.09 Thunderstorm Light Rain SCT055 23 21 89% 76.07 0.0
13 15:35 N 13 G 28 16.09 Thunderstorm SCT110 22 20 88% 76.05 0.0
13 15:15 Calm 16.09 Thunderstorm Light Rain SCT002 SCT031 BKN060 22 20 88% 76.07 0.0
13 14:55 SE 11 G 24 0.80 Thunderstorm Rain BKN002 BKN018 OVC026 22 20 88% 76.23 0.0
13 14:35 N 22 G 33 11.27 Thunderstorm Rain in Vicinity BKN027 OVC034 27 23 79% 30 76.15 0.0
13 14:15 E 6 16.09 Thunderstorm in Vicinity SCT030 28 22 70% 31 76.15 0.0
13 13:55 SE 13 16.09 Thunderstorm in Vicinity SCT100 29 22 66% 32 76.1 0.0
13 13:35 E 11 16.09 Thunderstorm in Vicinity SCT100 28 22 70% 31 76.15 0.0
13 13:15 SE 15 16.09 Thunderstorm in Vicinity SCT110 28 22 70% 31 76.15 0.0
13 12:55 SE 15 16.09 Fair CLR 28 22 70% 31 76.12 0.0
13 12:35 SE 13 16.09 Fair CLR 27 22 74% 29 76.17 0.0
13 12:15 SE 17 16.09 Fair CLR 27 22 74% 29 76.17 0.0
13 11:55 E 13 16.09 Fair CLR 26 21 74% 27 76.2 0.0
13 11:35 SE 24 16.09 Partly Cloudy SCT100 26 21 74% 27 76.15 0.0
13 11:15 SE 22 16.09 Fair CLR 26 21 74% 27 76.17 0.0
13 10:55 SE 11 16.09 Fair CLR 26 21 74% 27 76.2 0.0
13 10:35 Calm 16.09 Partly Cloudy SCT027 SCT033 25 21 79% 26 76.23 0.0
13 10:15 E 7 16.09 Thunderstorm in Vicinity SCT019 BKN027 BKN110 24 21 83% 24 76.25 0.0
13 09:55 N 11 16.09 Thunderstorm in Vicinity SCT019 SCT031 SCT110 24 21 83% 24 76.33 0.0
13 09:35 E 7 16.09 Thunderstorm in Vicinity SCT100 24 21 83% 24 76.28 0.0
13 09:15 Calm 16.09 Partly Cloudy SCT100 25 20 74% 26 76.28 0.0
13 08:55 Calm 16.09 Partly Cloudy SCT100 25 20 74% 26 76.3 0.0
13 08:35 SE 7 16.09 Thunderstorm in Vicinity SCT110 25 20 74% 26 76.28 0.0
13 08:15 Calm 16.09 Fair CLR 24 19 74% 25 76.33 0.0
13 07:55 E 11 16.09 Fair CLR 24 19 74% 25 76.3 0.0
13 07:35 E 6 16.09 Fair CLR 24 19 74% 25 76.3 0.0
13 07:15 E 9 16.09 Partly Cloudy SCT065 23 19 78% 76.28 0.0
13 06:55 SE 9 16.09 Mostly Cloudy SCT048 BKN065 23 19 78% 76.3 0.0
13 06:35 E 6 16.09 Mostly Cloudy SCT044 BKN065 23 18 74% 76.28 0.0
13 06:15 Calm 16.09 Partly Cloudy SCT044 23 18 74% 76.28 0.0
13 05:55 E 7 16.09 Mostly Cloudy SCT023 SCT033 BKN044 23 18 74% 76.25 0.0
13 05:35 E 9 16.09 Mostly Cloudy SCT025 SCT030 BKN037 23 18 74% 76.25 0.0
13 05:15 E 9 16.09 Partly Cloudy SCT036 23 18 74% 76.28 0.0
13 04:55 E 9 16.09 Mostly Cloudy BKN039 23 18 74% 76.28 0.0
13 04:35 E 7 16.09 Mostly Cloudy BKN041 BKN065 23 18 74% 76.3 0.0
13 04:15 E 11 16.09 Overcast BKN041 OVC050 23 18 74% 76.3 0.0
13 03:55 E 7 16.09 Mostly Cloudy SCT041 SCT050 BKN055 23 18 74% 76.3 0.0
13 03:35 E 9 16.09 Mostly Cloudy SCT048 BKN050 BKN065 23 18 74% 76.28 0.0
13 03:15 E 9 16.09 Overcast BKN050 OVC055 23 18 74% 76.28 0.0
13 02:55 E 11 16.09 Mostly Cloudy BKN050 23 18 74% 76.28 0.0
13 02:35 NE 9 16.09 Fair CLR 22 18 78% 76.3 0.0
13 02:15 E 7 16.09 Fair CLR 23 18 74% 76.3 0.0
13 01:55 E 6 16.09 Fair CLR 23 18 74% 76.3 0.0
13 01:35 SE 6 16.09 Fair CLR 23 18 74% 76.33 0.0
13 01:15 SE 11 16.09 Fair CLR 24 18 69% 25 76.33 0.0
13 00:55 SE 11 16.09 Fair CLR 24 18 69% 25 76.35 0.0
13 00:35 SE 9 16.09 Fair CLR 24 18 69% 25 76.33 0.0
13 00:15 SE 7 16.09 Fair CLR 24 18 69% 25 76.33 0.0
12 23:55 E 6 16.09 Fair CLR 23 18 74% 76.33 0.0
12 23:35 Calm 16.09 Fair CLR 23 18 74% 76.35 0.0
12 23:15 Calm 16.09 Fair CLR 24 18 69% 25 76.33 0.0
12 22:55 Calm 16.09 Fair CLR 24 18 69% 25 76.33 0.0
12 22:35 S 15 16.09 Fair CLR 26 18 61% 27 76.3 0.0
12 22:15 SE 7 16.09 Fair CLR 25 18 65% 26 76.3 0.0
12 21:55 SE 11 16.09 Fair CLR 26 17 58% 27 76.33 0.0
12 21:35 S 11 16.09 Fair CLR 26 17 58% 27 76.3 0.0
12 21:15 S 9 16.09 Fair CLR 26 17 58% 27 76.3 0.0
12 20:55 S 11 16.09 Fair CLR 27 17 54% 28 76.3 0.0
12 20:35 S 9 16.09 Fair CLR 27 17 54% 28 76.3 0.0
12 20:15 S 7 16.09 Fair CLR 28 17 51% 29 76.3 0.0
12 19:55 SE 9 16.09 Fair CLR 28 17 51% 29 76.28 0.0
12 19:35 SE 11 16.09 Fair CLR 28 17 51% 29 76.28 0.0
12 19:15 S 13 16.09 Fair CLR 29 17 48% 29 76.28 0.0
12 18:55 SE 9 16.09 Fair CLR 29 17 48% 29 76.28 0.0
12 18:35 SE 11 16.09 Fair CLR 30 17 46% 30 76.28 0.0
12 18:15 SE 11 16.09 Fair CLR 30 17 46% 30 76.25 0.0
12 17:55 SE 13 16.09 Fair CLR 30 16 43% 30 76.28 0.0
12 17:35 S 9 16.09 Fair CLR 31 16 40% 31 76.25 0.0
12 17:15 S 19 16.09 Partly Cloudy SCT055 31 16 40% 31 76.28 0.0
12 16:55 S 13 16.09 Fair CLR 31 16 40% 31 76.28 0.0
12 16:35 SE 17 16.09 Fair CLR 31 15 38% 31 76.28 0.0
12 16:15 SE 11 16.09 Partly Cloudy SCT055 31 16 40% 31 76.28 0.0
12 15:55 SE 17 16.09 Fair CLR 31 16 40% 31 76.3 0.0
12 15:35 S 9 16.09 Fair CLR 31 16 40% 31 76.3 0.0
12 15:15 S 11 16.09 Fair CLR 31 14 35% 30 76.3 0.0
12 14:55 S 15 G 26 16.09 Fair CLR 30 15 40% 30 76.33 0.0
12 14:35 S 7 16.09 Fair CLR 29 16 45% 29 76.33 0.0
12 14:15 S 13 16.09 Fair CLR 30 14 38% 29 76.33 0.0
12 13:55 S 13 16.09 Fair CLR 30 15 40% 30 76.35 0.0
12 13:35 S 15 G 26 16.09 Fair CLR 30 15 40% 30 76.35 0.0
12 13:15 S 11 16.09 Fair CLR 29 16 45% 29 76.38 0.0
12 12:55 S 13 16.09 Fair CLR 29 16 45% 29 76.38 0.0
12 12:35 S 13 16.09 Fair CLR 29 17 48% 29 76.4 0.0
12 12:15 S 7 16.09 Partly Cloudy SCT110 29 17 48% 29 76.4 0.0
12 11:55 S 15 16.09 Fair CLR 29 16 45% 29 76.43 0.0
12 11:35 S 9 16.09 Fair CLR 28 17 51% 29 76.43 0.0
12 11:15 S 9 16.09 Fair CLR 28 17 51% 29 76.43 0.0
12 10:55 S 15 16.09 Fair CLR 28 17 51% 29 76.43 0.0
12 10:35 S 11 16.09 Fair CLR 27 18 58% 28 76.43 0.0
12 10:15 Calm 16.09 Fair CLR 26 18 61% 27 76.43 0.0
12 09:55 S 7 16.09 Fair CLR 26 18 61% 27 76.45 0.0
12 09:35 Calm 16.09 Fair CLR 26 18 61% 27 76.45 0.0
12 08:55 Calm 16.09 Fair CLR 24 18 69% 25 76.45 0.0
12 08:35 Calm 16.09 Fair CLR 24 18 69% 25 76.45 0.0
12 08:15 Calm 16.09 Fair CLR 23 18 74% 76.45 0.0
12 07:55 Calm 16.09 Fair CLR 23 19 78% 76.43 0.0
12 07:35 Calm 16.09 Fair CLR 22 19 83% 76.43 0.0
12 07:15 Calm 16.09 Fair CLR 21 18 83% 76.43 0.0
12 06:55 Calm 16.09 Fair CLR 19 18 94% 76.4 0.0
12 06:35 Calm 16.09 Fair CLR 18 17 94% 76.38 0.0
Date Time (cdt) Wind (kph) Vis. (km) Weather Sky Cond. Air Dwpt Max. Min. Relative Humidity Wind Chill (°C) Heat Index (°C) altimeter (cm) sea level (mb) 1 hr 3 hr 6 hr
6 hour
Temperature (ºC) Pressure Precipitation (cm)